createdAt,value
2022-11-24T00:02:21.598Z,-0.36
2022-11-24T00:04:51.909Z,-0.35
2022-11-24T00:07:21.811Z,-0.33
2022-11-24T00:09:51.658Z,-0.30
2022-11-24T00:12:22.069Z,-0.30
2022-11-24T00:14:51.981Z,-0.24
2022-11-24T00:17:21.798Z,-0.22
2022-11-24T00:19:50.320Z,-0.20
2022-11-24T00:22:18.594Z,-0.19
2022-11-24T00:24:47.211Z,-0.19
2022-11-24T00:27:15.461Z,-0.22
2022-11-24T00:29:43.856Z,-0.22
2022-11-24T00:32:12.308Z,-0.24
2022-11-24T00:34:42.092Z,-0.25
2022-11-24T00:37:09.067Z,-0.27
2022-11-24T00:39:37.426Z,-0.30
2022-11-24T00:42:07.958Z,-0.32
2022-11-24T00:44:37.341Z,-0.33
2022-11-24T00:47:06.477Z,-0.37
2022-11-24T00:49:34.121Z,-0.41
2022-11-24T00:52:02.525Z,-0.43
2022-11-24T00:54:31.407Z,-0.46
2022-11-24T00:56:59.335Z,-0.47
2022-11-24T00:59:27.779Z,-0.49
2022-11-24T01:01:57.598Z,-0.52
2022-11-24T01:04:27.373Z,-0.56
2022-11-24T01:06:57.231Z,-0.52
2022-11-24T01:09:27.012Z,-0.53
2022-11-24T01:12:02.659Z,-0.55
2022-11-24T01:14:33.444Z,-0.54
2022-11-24T05:33:48.480Z,-1.11
2022-11-24T05:36:36.906Z,-1.19
2022-11-24T05:39:07.920Z,-1.19
2022-11-24T05:41:37.767Z,-1.18
2022-11-24T05:44:07.725Z,-1.25
2022-11-24T05:46:37.743Z,-1.29
2022-11-24T05:49:07.614Z,-1.30
2022-11-24T05:51:37.535Z,-1.21
2022-11-24T05:54:07.290Z,-1.27
2022-11-24T05:56:37.130Z,-1.29
2022-11-24T05:59:09.931Z,-1.28
2022-11-24T06:01:40.131Z,-1.28
2022-11-24T06:04:10.026Z,-1.29
2022-11-24T06:06:39.894Z,-1.36
2022-11-24T06:09:09.842Z,-1.39
2022-11-24T06:11:39.568Z,-1.34
2022-11-24T06:14:11.523Z,-1.29
2022-11-24T06:16:41.202Z,-1.21
2022-11-24T06:19:11.648Z,-1.18
2022-11-24T06:21:40.872Z,-1.21
2022-11-24T06:24:09.074Z,-1.27
2022-11-24T06:26:37.632Z,-1.33
2022-11-24T06:29:06.682Z,-1.36
2022-11-24T06:31:34.935Z,-1.33
2022-11-24T06:34:07.580Z,-1.27
2022-11-24T06:36:39.228Z,-1.28
2022-11-24T06:39:10.547Z,-1.40
2022-11-24T06:41:40.588Z,-1.45
2022-11-24T06:44:10.476Z,-1.49
2022-11-24T06:46:40.603Z,-1.40
2022-11-24T06:49:10.572Z,-1.40
2022-11-24T06:51:41.137Z,-1.34
2022-11-24T06:54:17.583Z,-1.31
2022-11-24T06:56:48.102Z,-1.37
2022-11-24T06:59:20.535Z,-1.28
2022-11-24T07:01:49.770Z,-1.36
2022-11-24T07:04:17.863Z,-1.40
2022-11-24T07:06:46.654Z,-1.32
2022-11-24T07:09:14.843Z,-1.35
2022-11-24T07:11:43.429Z,-1.35
2022-11-24T07:14:11.642Z,-1.31
2022-11-24T07:16:40.618Z,-1.38
2022-11-24T07:19:10.305Z,-1.33
2022-11-24T07:21:40.244Z,-1.34
2022-11-24T07:24:10.153Z,-1.28
2022-11-24T07:26:40.329Z,-1.30
2022-11-24T07:29:10.138Z,-1.28
2022-11-24T07:31:40.247Z,-1.28
2022-11-24T07:34:10.199Z,-1.25
2022-11-24T07:36:40.186Z,-1.21
2022-11-24T07:39:09.958Z,-1.26
2022-11-24T07:41:39.776Z,-1.23
2022-11-24T07:44:09.656Z,-1.21
2022-11-24T07:46:39.498Z,-1.14
2022-11-24T07:49:09.574Z,-1.11
2022-11-24T07:51:39.430Z,-1.06
2022-11-24T07:54:09.807Z,-1.04
2022-11-24T07:56:39.741Z,-1.04
2022-11-24T07:59:09.468Z,-1.00
2022-11-24T08:01:39.366Z,-0.93
2022-11-24T08:04:09.222Z,-0.86
2022-11-24T08:06:43.293Z,-0.85
2022-11-24T08:09:16.772Z,-0.79
2022-11-24T08:11:46.568Z,-0.77
2022-11-24T08:14:16.318Z,-0.73
2022-11-24T08:16:46.170Z,-0.69
2022-11-24T08:19:15.851Z,-0.71
2022-11-24T08:21:45.797Z,-0.61
2022-11-24T08:24:17.012Z,-0.57
2022-11-24T08:26:46.848Z,-0.60
2022-11-24T08:29:16.780Z,-0.50
2022-11-24T08:31:47.020Z,-0.39
2022-11-24T08:34:16.871Z,-0.58
2022-11-24T08:36:46.595Z,-0.64
2022-11-24T08:39:16.480Z,-0.57
2022-11-24T08:41:46.816Z,-0.46
2022-11-24T08:44:18.286Z,-0.44
2022-11-24T08:46:48.433Z,-0.45
2022-11-24T08:49:18.940Z,-0.41
2022-11-24T08:51:51.189Z,-0.32
2022-11-24T08:54:21.725Z,-0.30
2022-11-24T08:56:51.337Z,-0.26
2022-11-24T08:59:21.233Z,-0.11
2022-11-24T09:01:51.207Z,-0.13
2022-11-24T09:04:21.127Z,-0.07
2022-11-24T09:06:50.994Z,-0.04
2022-11-24T09:09:20.842Z,-0.03
2022-11-24T09:11:50.600Z,0.06
2022-11-24T09:14:17.771Z,0.09
2022-11-24T09:16:44.854Z,0.12
2022-11-24T09:19:15.150Z,0.17
2022-11-24T09:21:44.934Z,0.23
2022-11-24T09:24:16.617Z,0.17
2022-11-24T09:26:47.786Z,0.11
2022-11-24T09:29:15.841Z,0.31
2022-11-24T09:31:45.807Z,0.31
2022-11-24T09:34:16.773Z,0.35
2022-11-24T09:36:46.073Z,0.53
2022-11-24T09:39:15.978Z,0.49
2022-11-24T09:42:14.420Z,0.52
2022-11-24T09:46:04.452Z,0.57
2022-11-24T09:48:50.428Z,0.64
2022-11-24T09:51:25.666Z,0.55
2022-11-24T09:54:06.039Z,0.55
2022-11-24T09:56:40.627Z,0.81
2022-11-24T09:59:23.527Z,0.84
2022-11-24T10:01:53.171Z,0.93
2022-11-24T10:04:29.662Z,0.86
2022-11-24T10:07:27.819Z,0.89
2022-11-24T10:10:25.937Z,0.89
2022-11-24T10:13:08.192Z,0.93
2022-11-24T10:16:04.165Z,0.99
2022-11-24T10:19:13.046Z,1.02
2022-11-24T10:22:10.405Z,0.88
2022-11-24T10:25:18.001Z,1.03
2022-11-24T10:27:57.301Z,1.17
2022-11-24T10:30:28.142Z,1.25
2022-11-24T10:33:05.989Z,1.39
2022-11-24T10:35:47.487Z,1.48
2022-11-24T10:38:20.209Z,1.59
2022-11-24T10:41:14.473Z,1.85
2022-11-24T10:43:44.501Z,2.21
2022-11-24T10:46:27.049Z,1.90
2022-11-24T10:49:03.075Z,1.68
2022-11-24T10:52:05.705Z,1.68
2022-11-24T10:54:36.175Z,1.89
2022-11-24T10:57:05.944Z,1.95
2022-11-24T10:59:40.280Z,2.09
2022-11-24T11:02:36.111Z,2.25
2022-11-24T11:05:42.516Z,2.14
2022-11-24T11:08:29.283Z,2.22
2022-11-24T11:11:31.002Z,2.21
2022-11-24T11:14:04.956Z,2.34
2022-11-24T11:16:51.830Z,2.41
2022-11-24T11:19:56.904Z,2.46
2022-11-24T11:22:32.019Z,2.36
2022-11-24T11:25:16.200Z,2.45
2022-11-24T11:27:43.935Z,2.61
2022-11-24T11:36:16.850Z,2.26
2022-11-24T11:38:47.017Z,2.48
2022-11-24T11:41:45.171Z,2.68
2022-11-24T11:44:47.047Z,2.78
2022-11-24T11:47:48.004Z,2.79
2022-11-24T11:50:27.504Z,2.79
2022-11-24T11:53:17.923Z,2.92
2022-11-24T11:56:34.925Z,2.82
2022-11-24T11:59:26.533Z,2.83
2022-11-24T12:02:26.951Z,3.07
2022-11-24T12:05:20.406Z,3.03
2022-11-24T12:08:20.479Z,3.08
2022-11-24T12:11:13.830Z,3.00
2022-11-24T12:14:15.765Z,3.22
2022-11-24T12:17:03.189Z,3.21
2022-11-24T12:19:48.395Z,2.95
2022-11-24T12:22:36.367Z,2.89
2022-11-24T12:25:29.383Z,2.98
2022-11-24T12:28:33.490Z,3.03
2022-11-24T12:31:27.969Z,3.16
2022-11-24T12:34:54.513Z,3.15
2022-11-24T12:37:58.780Z,3.33
2022-11-24T12:44:00.914Z,3.55
2022-11-24T12:47:18.234Z,3.62
2022-11-24T12:50:15.852Z,3.45
2022-11-24T12:53:02.969Z,3.63
2022-11-24T12:55:34.131Z,3.78
2022-11-24T12:58:32.703Z,3.88
2022-11-24T13:01:39.305Z,3.72
2022-11-24T13:04:41.061Z,3.55
2022-11-24T13:07:18.477Z,3.68
2022-11-24T13:10:53.624Z,3.88
2022-11-24T13:13:15.892Z,3.90
2022-11-24T13:16:34.769Z,3.92
2022-11-24T13:18:52.508Z,4.03
2022-11-24T13:21:29.423Z,4.03
2022-11-24T13:24:06.421Z,3.97
2022-11-24T13:26:42.078Z,4.12
2022-11-24T13:29:36.359Z,4.06
2022-11-24T13:32:05.943Z,4.13
2022-11-24T13:34:38.863Z,4.11
2022-11-24T13:37:34.649Z,4.00
2022-11-24T13:40:11.557Z,4.03
2022-11-24T13:42:57.327Z,4.03
2022-11-24T13:45:39.220Z,3.91
2022-11-24T13:48:21.494Z,3.96
2022-11-24T13:50:53.269Z,3.93
2022-11-24T13:53:47.569Z,3.84
2022-11-24T13:56:16.599Z,3.86
2022-11-24T13:58:59.639Z,3.85
2022-11-24T14:01:36.019Z,3.95
2022-11-24T14:04:32.011Z,3.94
2022-11-24T14:07:15.368Z,3.94
2022-11-24T14:09:52.839Z,3.93
2022-11-24T14:12:24.747Z,3.87
2022-11-24T14:15:20.695Z,3.80
2022-11-24T14:17:50.592Z,3.84
2022-11-24T14:20:28.191Z,3.77
2022-11-24T14:22:58.096Z,3.80
2022-11-24T14:25:32.766Z,3.67
2022-11-24T14:28:02.850Z,3.66
2022-11-24T14:30:32.608Z,3.68
2022-11-24T14:33:04.140Z,3.63
2022-11-24T14:35:36.463Z,3.60
2022-11-24T14:38:10.938Z,3.56
2022-11-24T14:40:43.814Z,3.55
2022-11-24T14:43:34.596Z,3.54
2022-11-24T14:46:12.209Z,3.54
2022-11-24T14:48:53.241Z,3.51
2022-11-24T14:51:35.774Z,3.49
2022-11-24T14:54:16.653Z,3.46
2022-11-24T14:57:04.089Z,3.47
2022-11-24T14:59:37.994Z,3.50
2022-11-24T15:02:41.299Z,3.52
2022-11-24T15:05:11.206Z,3.51
2022-11-24T15:07:48.844Z,3.50
2022-11-24T15:10:33.909Z,3.43
2022-11-24T15:13:22.637Z,3.39
2022-11-24T15:16:08.163Z,3.38
2022-11-24T15:18:46.984Z,3.36
2022-11-24T15:21:19.516Z,3.35
2022-11-24T15:24:18.124Z,3.35
2022-11-24T15:26:47.887Z,3.34
2022-11-24T15:29:17.659Z,3.35
2022-11-24T15:31:52.418Z,3.30
2022-11-24T15:34:22.775Z,3.30
2022-11-24T15:36:52.460Z,3.29
2022-11-24T15:39:22.221Z,3.27
2022-11-24T15:41:51.978Z,3.27
2022-11-24T15:44:21.758Z,3.28
2022-11-24T15:46:51.597Z,3.24
2022-11-24T15:49:21.817Z,3.24
2022-11-24T15:51:51.647Z,3.26
2022-11-24T15:54:19.901Z,3.25
2022-11-24T15:56:49.264Z,3.23
2022-11-24T15:59:21.155Z,3.25
2022-11-24T16:01:51.363Z,3.24
2022-11-24T16:04:21.071Z,3.19
2022-11-24T16:06:50.775Z,3.17
2022-11-24T16:09:20.590Z,3.17
2022-11-24T16:11:50.402Z,3.19
2022-11-24T16:14:20.230Z,3.08
2022-11-24T16:16:50.422Z,3.07
2022-11-24T16:19:20.224Z,3.09
2022-11-24T16:21:50.370Z,3.13
2022-11-24T16:24:20.081Z,3.15
2022-11-24T16:26:49.841Z,3.12
2022-11-24T16:29:20.904Z,3.04
2022-11-24T16:31:54.120Z,3.00
2022-11-24T16:34:24.044Z,2.94
2022-11-24T16:36:53.814Z,2.93
2022-11-24T16:39:23.484Z,2.91
2022-11-24T16:41:53.153Z,2.86
2022-11-24T16:44:22.993Z,2.82
2022-11-24T16:46:52.767Z,2.76
2022-11-24T16:49:22.883Z,2.70
2022-11-24T16:51:52.563Z,2.66
2022-11-24T16:54:22.529Z,2.64
2022-11-24T16:56:52.592Z,2.59
2022-11-24T16:59:22.509Z,2.55
2022-11-24T17:01:52.413Z,2.46
2022-11-24T17:04:22.275Z,2.44
2022-11-24T17:06:52.307Z,2.40
2022-11-24T17:09:22.137Z,2.35
2022-11-24T17:11:51.942Z,2.35
2022-11-24T17:14:20.356Z,2.29
2022-11-24T17:16:48.735Z,2.27
2022-11-24T17:19:17.148Z,2.26
2022-11-24T17:21:46.308Z,2.23
2022-11-24T17:24:17.441Z,2.22
2022-11-24T17:26:49.111Z,2.19
2022-11-24T17:29:19.676Z,2.19
2022-11-24T17:31:49.179Z,2.21
2022-11-24T17:34:18.993Z,2.23
2022-11-24T17:36:48.694Z,2.22
2022-11-24T17:39:24.592Z,2.19
2022-11-24T17:41:52.911Z,2.21
2022-11-24T17:44:20.136Z,2.23
2022-11-24T17:46:49.954Z,2.27
2022-11-24T17:49:21.094Z,2.31
2022-11-24T17:51:50.582Z,2.34
2022-11-24T17:57:07.257Z,2.42
2022-11-24T17:59:35.917Z,2.39
2022-11-24T18:02:04.426Z,2.37
2022-11-24T18:04:34.755Z,2.39
2022-11-24T18:07:04.226Z,2.42
2022-11-24T18:09:32.677Z,2.42
2022-11-24T18:12:01.177Z,2.40
2022-11-24T18:14:28.388Z,2.40
2022-11-24T18:16:55.699Z,2.41
2022-11-24T18:19:24.216Z,2.45
2022-11-24T18:21:52.513Z,2.50
2022-11-24T18:24:24.065Z,2.51
2022-11-24T18:26:54.421Z,2.50
2022-11-24T18:29:24.163Z,2.50
2022-11-24T18:31:54.283Z,2.45
2022-11-24T18:34:27.082Z,2.40
2022-11-24T18:36:56.942Z,2.41
2022-11-24T18:39:28.297Z,2.40
2022-11-24T18:41:58.001Z,2.35
2022-11-24T18:44:27.766Z,2.35
2022-11-24T18:46:57.715Z,2.38
2022-11-24T18:49:28.004Z,2.35
2022-11-24T18:51:59.405Z,2.33
2022-11-24T18:54:29.244Z,2.30
2022-11-24T18:57:03.104Z,2.24
2022-11-24T18:59:33.371Z,2.19
2022-11-24T19:02:03.241Z,2.16
2022-11-24T19:04:33.446Z,2.09
2022-11-24T19:07:03.414Z,2.05
2022-11-24T19:09:33.147Z,2.01
2022-11-24T19:12:03.196Z,1.97
2022-11-24T19:14:34.157Z,1.92
2022-11-24T19:17:05.101Z,1.84
2022-11-24T19:19:35.970Z,1.75
2022-11-24T19:22:05.753Z,1.63
2022-11-24T19:24:36.015Z,1.60
2022-11-24T19:27:06.015Z,1.56
2022-11-24T19:29:39.093Z,1.43
2022-11-24T19:32:12.782Z,1.38
2022-11-24T19:34:42.545Z,1.35
2022-11-24T19:37:12.268Z,1.33
2022-11-24T19:39:41.997Z,1.31
2022-11-24T19:42:15.255Z,1.28
2022-11-24T19:44:45.004Z,1.25
2022-11-24T19:47:14.749Z,1.26
2022-11-24T19:49:44.545Z,1.18
2022-11-24T19:52:14.269Z,1.15
2022-11-24T19:54:44.193Z,1.09
2022-11-24T19:57:14.019Z,1.04
2022-11-24T19:59:45.716Z,1.02
2022-11-24T20:02:15.548Z,1.02
2022-11-24T20:04:45.436Z,0.99
2022-11-24T20:07:15.163Z,0.96
2022-11-24T20:09:45.164Z,0.95
2022-11-24T20:12:16.411Z,0.93
2022-11-24T20:14:46.165Z,0.87
2022-11-24T20:17:15.889Z,0.87
2022-11-24T20:19:44.396Z,0.84
2022-11-24T20:22:12.692Z,0.79
2022-11-24T20:24:41.304Z,0.77
2022-11-24T20:27:09.580Z,0.77
2022-11-24T20:29:45.260Z,0.77
2022-11-24T20:32:19.566Z,0.76
2022-11-24T20:34:49.471Z,0.74
2022-11-24T20:37:19.200Z,0.73
2022-11-24T20:39:50.662Z,0.76
2022-11-24T20:42:21.336Z,0.73
2022-11-24T20:44:51.008Z,0.75
2022-11-24T20:47:20.801Z,0.77
2022-11-24T20:49:50.670Z,0.82
2022-11-24T20:52:20.412Z,0.81
2022-11-24T20:54:50.097Z,0.76
2022-11-24T20:57:19.762Z,0.74
2022-11-24T20:59:50.458Z,0.71
2022-11-24T21:02:21.200Z,0.67
2022-11-24T21:04:50.841Z,0.66
2022-11-24T21:07:20.543Z,0.70
2022-11-24T21:09:50.350Z,0.72
2022-11-24T21:12:20.331Z,0.71
2022-11-24T21:14:50.068Z,0.71
2022-11-24T21:17:19.834Z,0.74
2022-11-24T21:19:49.608Z,0.72
2022-11-24T21:22:19.323Z,0.74
2022-11-24T21:24:49.110Z,0.71
2022-11-24T21:27:18.832Z,0.71
2022-11-24T21:29:48.548Z,0.72
2022-11-24T21:32:18.284Z,0.71
2022-11-24T21:34:48.084Z,0.71
2022-11-24T21:37:16.572Z,0.71
2022-11-24T21:39:45.698Z,0.76
2022-11-24T21:42:15.322Z,0.79
2022-11-24T21:44:44.994Z,0.81
2022-11-24T21:47:12.163Z,0.85
2022-11-24T21:49:39.357Z,0.89
2022-11-24T21:52:08.025Z,0.91
2022-11-24T21:54:36.667Z,0.90
2022-11-24T21:57:05.107Z,0.86
2022-11-24T21:59:33.388Z,0.80
2022-11-24T22:02:01.773Z,0.74
2022-11-24T22:04:30.395Z,0.69
2022-11-24T22:06:58.738Z,0.68
2022-11-24T22:09:27.185Z,0.72
2022-11-24T22:11:55.647Z,0.76
2022-11-24T22:14:23.904Z,0.81
2022-11-24T22:16:52.292Z,0.88
2022-11-24T22:19:20.874Z,0.90
2022-11-24T22:21:49.693Z,0.95
2022-11-24T22:24:18.425Z,0.95
2022-11-24T22:26:50.538Z,0.99
2022-11-24T22:29:20.670Z,1.03
2022-11-24T22:31:50.606Z,1.05
2022-11-24T22:34:20.650Z,1.07
2022-11-24T22:36:50.346Z,1.12
2022-11-24T22:39:20.042Z,1.17
2022-11-24T22:41:49.846Z,1.21
2022-11-24T22:44:23.724Z,1.22
2022-11-24T22:46:52.856Z,1.27
2022-11-24T22:49:23.618Z,1.33
2022-11-24T22:51:53.556Z,1.33
2022-11-24T22:54:23.295Z,1.42
2022-11-24T22:56:53.286Z,1.51
2022-11-24T22:59:23.029Z,1.55
2022-11-24T23:01:52.932Z,1.57
2022-11-24T23:04:23.171Z,1.55
2022-11-24T23:06:52.990Z,1.59
2022-11-24T23:09:22.756Z,1.63
2022-11-24T23:11:52.483Z,1.64
2022-11-24T23:14:22.295Z,1.64
2022-11-24T23:16:49.288Z,1.66
2022-11-24T23:19:16.587Z,1.68
2022-11-24T23:21:46.362Z,1.70
2022-11-24T23:24:16.497Z,1.72
2022-11-24T23:26:46.323Z,1.75
2022-11-24T23:29:16.308Z,1.73
2022-11-24T23:31:46.227Z,1.72
2022-11-24T23:34:16.139Z,1.73
2022-11-24T23:36:46.133Z,1.72
2022-11-24T23:39:16.358Z,1.73
2022-11-24T23:41:45.644Z,1.73
2022-11-24T23:44:15.684Z,1.72
2022-11-24T23:46:45.459Z,1.69
2022-11-24T23:49:18.571Z,1.70
2022-11-24T23:51:45.707Z,1.73
2022-11-24T23:54:38.329Z,1.79
2022-11-24T23:57:08.149Z,1.84
2022-11-24T23:59:34.886Z,1.84
